sensor_id;sensor_type;location;lat;lon;timestamp;pressure;altitude;pressure_sealevel;temperature;humidity
12803;BME280;6465;42.700;23.278;2024-01-27T00:00:12;95457.81;;;3.85;64.89
12803;BME280;6465;42.700;23.278;2024-01-27T00:02:39;95451.88;;;3.80;65.41
12803;BME280;6465;42.700;23.278;2024-01-27T00:05:07;95442.53;;;3.71;65.45
12803;BME280;6465;42.700;23.278;2024-01-27T00:07:34;95449.25;;;3.83;65.36
12803;BME280;6465;42.700;23.278;2024-01-27T00:10:03;95445.72;;;3.85;65.29
12803;BME280;6465;42.700;23.278;2024-01-27T00:12:31;95457.81;;;3.85;65.33
12803;BME280;6465;42.700;23.278;2024-01-27T00:14:58;95443.19;;;3.82;65.27
12803;BME280;6465;42.700;23.278;2024-01-27T00:17:25;95450.94;;;3.84;65.69
12803;BME280;6465;42.700;23.278;2024-01-27T00:19:53;95439.72;;;3.83;65.52
12803;BME280;6465;42.700;23.278;2024-01-27T00:22:20;95426.81;;;3.80;65.59
12803;BME280;6465;42.700;23.278;2024-01-27T00:24:47;95435.41;;;3.84;65.59
12803;BME280;6465;42.700;23.278;2024-01-27T00:27:16;95445.69;;;3.87;65.80
12803;BME280;6465;42.700;23.278;2024-01-27T00:29:43;95431.69;;;3.97;65.47
12803;BME280;6465;42.700;23.278;2024-01-27T00:32:09;95438.41;;;4.07;65.31
12803;BME280;6465;42.700;23.278;2024-01-27T00:34:36;95425.69;;;3.95;65.18
12803;BME280;6465;42.700;23.278;2024-01-27T00:37:03;95421.22;;;4.03;65.10
12803;BME280;6465;42.700;23.278;2024-01-27T00:39:31;95433.91;;;4.15;64.99
12803;BME280;6465;42.700;23.278;2024-01-27T00:41:58;95436.41;;;4.20;65.04
12803;BME280;6465;42.700;23.278;2024-01-27T00:44:27;95437.28;;;4.20;64.93
12803;BME280;6465;42.700;23.278;2024-01-27T00:46:54;95439.88;;;4.19;65.08
12803;BME280;6465;42.700;23.278;2024-01-27T00:49:20;95432.94;;;4.21;64.93
12803;BME280;6465;42.700;23.278;2024-01-27T00:51:47;95429.50;;;4.20;65.08
12803;BME280;6465;42.700;23.278;2024-01-27T00:54:14;95438.16;;;4.19;65.33
12803;BME280;6465;42.700;23.278;2024-01-27T00:56:41;95441.63;;;4.18;65.55
12803;BME280;6465;42.700;23.278;2024-01-27T00:59:08;95429.00;;;4.03;66.27
12803;BME280;6465;42.700;23.278;2024-01-27T01:01:37;95428.91;;;4.06;66.60
12803;BME280;6465;42.700;23.278;2024-01-27T01:04:04;95428.13;;;4.03;66.83
12803;BME280;6465;42.700;23.278;2024-01-27T01:06:31;95429.78;;;4.05;66.83
12803;BME280;6465;42.700;23.278;2024-01-27T01:08:57;95432.38;;;4.05;66.75
12803;BME280;6465;42.700;23.278;2024-01-27T01:11:24;95436.81;;;3.98;67.23
12803;BME280;6465;42.700;23.278;2024-01-27T01:13:51;95438.41;;;4.06;67.10
12803;BME280;6465;42.700;23.278;2024-01-27T01:16:18;95436.56;;;4.12;66.93
12803;BME280;6465;42.700;23.278;2024-01-27T01:18:47;95443.31;;;4.19;66.98
12803;BME280;6465;42.700;23.278;2024-01-27T01:21:14;95436.28;;;4.26;66.76
12803;BME280;6465;42.700;23.278;2024-01-27T01:23:41;95421.66;;;4.23;66.26
12803;BME280;6465;42.700;23.278;2024-01-27T01:26:08;95432.78;;;4.28;65.93
12803;BME280;6465;42.700;23.278;2024-01-27T01:28:35;95438.75;;;4.32;65.87
12803;BME280;6465;42.700;23.278;2024-01-27T01:31:02;95430.06;;;4.34;65.88
12803;BME280;6465;42.700;23.278;2024-01-27T01:33:29;95424.13;;;4.29;66.06
12803;BME280;6465;42.700;23.278;2024-01-27T01:35:58;95423.16;;;4.33;65.79
12803;BME280;6465;42.700;23.278;2024-01-27T01:38:25;95413.53;;;4.38;65.76
12803;BME280;6465;42.700;23.278;2024-01-27T01:40:52;95413.63;;;4.35;66.03
12803;BME280;6465;42.700;23.278;2024-01-27T01:43:19;95420.56;;;4.33;65.79
12803;BME280;6465;42.700;23.278;2024-01-27T01:45:46;95405.88;;;4.34;65.73
12803;BME280;6465;42.700;23.278;2024-01-27T01:48:13;95398.22;;;4.29;65.98
12803;BME280;6465;42.700;23.278;2024-01-27T01:50:40;95404.16;;;4.33;65.59
12803;BME280;6465;42.700;23.278;2024-01-27T01:53:09;95401.88;;;4.19;65.57
12803;BME280;6465;42.700;23.278;2024-01-27T01:55:36;95403.44;;;4.26;65.69
12803;BME280;6465;42.700;23.278;2024-01-27T01:58:04;95405.25;;;4.23;65.34
12803;BME280;6465;42.700;23.278;2024-01-27T02:00:31;95401.81;;;4.22;65.55
12803;BME280;6465;42.700;23.278;2024-01-27T02:02:58;95394.84;;;4.24;65.11
12803;BME280;6465;42.700;23.278;2024-01-27T02:05:25;95394.78;;;4.27;65.14
12803;BME280;6465;42.700;23.278;2024-01-27T02:07:52;95385.13;;;4.34;64.90
12803;BME280;6465;42.700;23.278;2024-01-27T02:10:23;95382.44;;;4.38;64.21
12803;BME280;6465;42.700;23.278;2024-01-27T02:12:50;95374.66;;;4.38;63.93
12803;BME280;6465;42.700;23.278;2024-01-27T02:15:17;95374.34;;;4.54;63.30
12803;BME280;6465;42.700;23.278;2024-01-27T02:17:44;95361.94;;;4.66;62.57
12803;BME280;6465;42.700;23.278;2024-01-27T02:20:10;95366.22;;;4.69;61.93
12803;BME280;6465;42.700;23.278;2024-01-27T02:22:37;95362.88;;;4.64;61.26
12803;BME280;6465;42.700;23.278;2024-01-27T02:25:06;95374.00;;;4.69;61.72
12803;BME280;6465;42.700;23.278;2024-01-27T02:27:33;95371.41;;;4.69;61.42
12803;BME280;6465;42.700;23.278;2024-01-27T02:30:00;95362.41;;;4.84;60.01
12803;BME280;6465;42.700;23.278;2024-01-27T02:32:27;95358.22;;;4.78;59.68
12803;BME280;6465;42.700;23.278;2024-01-27T02:34:54;95350.19;;;4.89;58.74
12803;BME280;6465;42.700;23.278;2024-01-27T02:37:21;95370.56;;;5.04;58.00
12803;BME280;6465;42.700;23.278;2024-01-27T02:39:48;95364.44;;;5.06;57.61
12803;BME280;6465;42.700;23.278;2024-01-27T02:42:16;95366.09;;;5.09;57.68
12803;BME280;6465;42.700;23.278;2024-01-27T02:44:43;95369.53;;;5.11;57.85
12803;BME280;6465;42.700;23.278;2024-01-27T02:47:10;95369.06;;;5.29;56.77
12803;BME280;6465;42.700;23.278;2024-01-27T02:49:37;95367.19;;;5.34;56.39
12803;BME280;6465;42.700;23.278;2024-01-27T02:52:04;95360.97;;;5.40;55.92
12803;BME280;6465;42.700;23.278;2024-01-27T02:54:31;95355.88;;;5.37;56.04
12803;BME280;6465;42.700;23.278;2024-01-27T02:56:58;95359.94;;;5.47;55.32
12803;BME280;6465;42.700;23.278;2024-01-27T02:59:26;95366.78;;;5.51;55.71
12803;BME280;6465;42.700;23.278;2024-01-27T03:01:53;95372.69;;;5.56;55.68
12803;BME280;6465;42.700;23.278;2024-01-27T03:04:20;95375.16;;;5.61;55.57
12803;BME280;6465;42.700;23.278;2024-01-27T03:06:47;95370.78;;;5.63;55.64
12803;BME280;6465;42.700;23.278;2024-01-27T03:09:14;95381.03;;;5.67;56.17
12803;BME280;6465;42.700;23.278;2024-01-27T03:11:41;95382.84;;;5.65;56.42
12803;BME280;6465;42.700;23.278;2024-01-27T03:14:08;95385.31;;;5.70;56.88
12803;BME280;6465;42.700;23.278;2024-01-27T03:16:37;95388.78;;;5.70;57.66
12803;BME280;6465;42.700;23.278;2024-01-27T03:19:04;95383.63;;;5.67;58.89
12803;BME280;6465;42.700;23.278;2024-01-27T03:21:32;95373.38;;;5.63;59.72
12803;BME280;6465;42.700;23.278;2024-01-27T03:23:59;95372.13;;;5.45;61.43
12803;BME280;6465;42.700;23.278;2024-01-27T03:26:26;95384.06;;;5.52;62.28
12803;BME280;6465;42.700;23.278;2024-01-27T03:28:53;95387.59;;;5.49;63.36
12803;BME280;6465;42.700;23.278;2024-01-27T03:31:20;95387.72;;;5.45;63.84
12803;BME280;6465;42.700;23.278;2024-01-27T03:33:48;95379.28;;;5.35;64.35
12803;BME280;6465;42.700;23.278;2024-01-27T03:36:15;95370.78;;;5.30;64.81
12803;BME280;6465;42.700;23.278;2024-01-27T03:38:43;95364.09;;;5.20;65.02
12803;BME280;6465;42.700;23.278;2024-01-27T03:41:10;95367.31;;;5.30;65.39
12803;BME280;6465;42.700;23.278;2024-01-27T03:43:37;95356.81;;;5.34;65.18
12803;BME280;6465;42.700;23.278;2024-01-27T03:46:04;95360.19;;;5.38;65.32
12803;BME280;6465;42.700;23.278;2024-01-27T03:48:31;95359.34;;;5.37;65.74
12803;BME280;6465;42.700;23.278;2024-01-27T03:50:59;95350.53;;;5.43;65.84
12803;BME280;6465;42.700;23.278;2024-01-27T03:53:26;95347.25;;;5.36;66.96
12803;BME280;6465;42.700;23.278;2024-01-27T03:55:54;95343.97;;;5.28;67.55
12803;BME280;6465;42.700;23.278;2024-01-27T03:58:24;95358.91;;;5.20;68.47
12803;BME280;6465;42.700;23.278;2024-01-27T04:00:51;95361.44;;;5.23;69.14
12803;BME280;6465;42.700;23.278;2024-01-27T04:03:18;95359.53;;;5.30;69.68
12803;BME280;6465;42.700;23.278;2024-01-27T04:05:45;95362.25;;;5.25;70.26
12803;BME280;6465;42.700;23.278;2024-01-27T04:08:14;95355.94;;;5.34;70.58
12803;BME280;6465;42.700;23.278;2024-01-27T04:10:41;95357.59;;;5.38;70.56
12803;BME280;6465;42.700;23.278;2024-01-27T04:13:08;95356.53;;;5.45;70.89
12803;BME280;6465;42.700;23.278;2024-01-27T04:15:35;95353.25;;;5.38;70.89
12803;BME280;6465;42.700;23.278;2024-01-27T04:18:04;95352.25;;;5.44;70.49
12803;BME280;6465;42.700;23.278;2024-01-27T04:20:33;95343.56;;;5.45;70.54
12803;BME280;6465;42.700;23.278;2024-01-27T04:23:00;95339.41;;;5.38;70.69
12803;BME280;6465;42.700;23.278;2024-01-27T04:25:29;95348.19;;;5.32;71.04
12803;BME280;6465;42.700;23.278;2024-01-27T04:27:56;95345.50;;;5.37;71.09
12803;BME280;6465;42.700;23.278;2024-01-27T04:30:23;95343.13;;;5.28;71.50
12803;BME280;6465;42.700;23.278;2024-01-27T04:32:50;95355.97;;;5.32;71.45
12803;BME280;6465;42.700;23.278;2024-01-27T04:35:17;95350.59;;;5.40;71.67
12803;BME280;6465;42.700;23.278;2024-01-27T04:37:44;95355.00;;;5.38;71.37
12803;BME280;6465;42.700;23.278;2024-01-27T04:40:11;95358.31;;;5.43;71.14
12803;BME280;6465;42.700;23.278;2024-01-27T04:42:40;95343.63;;;5.42;71.64
12803;BME280;6465;42.700;23.278;2024-01-27T04:45:08;95347.13;;;5.41;72.68
12803;BME280;6465;42.700;23.278;2024-01-27T04:47:35;95347.13;;;5.41;73.66
12803;BME280;6465;42.700;23.278;2024-01-27T04:50:02;95345.41;;;5.40;74.50
12803;BME280;6465;42.700;23.278;2024-01-27T04:52:29;95355.63;;;5.46;74.81
12803;BME280;6465;42.700;23.278;2024-01-27T04:54:56;95355.00;;;5.38;75.28
12803;BME280;6465;42.700;23.278;2024-01-27T04:57:23;95347.28;;;5.35;76.12
12803;BME280;6465;42.700;23.278;2024-01-27T04:59:52;95359.44;;;5.33;76.43
12803;BME280;6465;42.700;23.278;2024-01-27T05:02:19;95356.13;;;5.28;76.82
12803;BME280;6465;42.700;23.278;2024-01-27T05:04:46;95365.59;;;5.29;77.32
12803;BME280;6465;42.700;23.278;2024-01-27T05:07:13;95359.91;;;5.14;77.50
12803;BME280;6465;42.700;23.278;2024-01-27T05:09:40;95366.44;;;5.31;76.99
12803;BME280;6465;42.700;23.278;2024-01-27T05:12:07;95362.03;;;5.33;77.96
12803;BME280;6465;42.700;23.278;2024-01-27T05:14:34;95371.00;;;5.21;79.02
12803;BME280;6465;42.700;23.278;2024-01-27T05:17:03;95372.50;;;5.30;79.04
12803;BME280;6465;42.700;23.278;2024-01-27T05:19:30;95370.81;;;5.29;79.83
12803;BME280;6465;42.700;23.278;2024-01-27T05:21:57;95367.56;;;5.19;81.19
12803;BME280;6465;42.700;23.278;2024-01-27T05:24:24;95378.91;;;5.16;81.69
12803;BME280;6465;42.700;23.278;2024-01-27T05:26:50;95372.63;;;5.25;81.59
12803;BME280;6465;42.700;23.278;2024-01-27T05:29:17;95366.44;;;5.31;81.30
12803;BME280;6465;42.700;23.278;2024-01-27T05:31:44;95368.88;;;5.37;81.40
12803;BME280;6465;42.700;23.278;2024-01-27T05:34:13;95369.66;;;5.39;81.11
12803;BME280;6465;42.700;23.278;2024-01-27T05:36:40;95381.91;;;5.34;82.14
12803;BME280;6465;42.700;23.278;2024-01-27T05:39:08;95372.50;;;5.30;83.01
12803;BME280;6465;42.700;23.278;2024-01-27T05:41:35;95374.84;;;5.39;82.45
12803;BME280;6465;42.700;23.278;2024-01-27T05:44:02;95374.25;;;5.29;82.91
12803;BME280;6465;42.700;23.278;2024-01-27T05:46:29;95383.84;;;5.26;83.93
12803;BME280;6465;42.700;23.278;2024-01-27T05:48:56;95382.22;;;5.22;83.03
12803;BME280;6465;42.700;23.278;2024-01-27T05:51:29;95393.44;;;5.24;83.52
12803;BME280;6465;42.700;23.278;2024-01-27T05:53:56;95392.97;;;5.06;85.34
12803;BME280;6465;42.700;23.278;2024-01-27T05:56:23;95395.88;;;4.94;85.71
12803;BME280;6465;42.700;23.278;2024-01-27T05:58:51;95391.75;;;4.86;86.38
12803;BME280;6465;42.700;23.278;2024-01-27T06:01:18;95401.75;;;5.02;85.86
12803;BME280;6465;42.700;23.278;2024-01-27T06:03:45;95393.47;;;4.85;87.49
12803;BME280;6465;42.700;23.278;2024-01-27T06:06:12;95402.25;;;4.81;88.30
12803;BME280;6465;42.700;23.278;2024-01-27T06:08:40;95397.13;;;4.78;88.86
12803;BME280;6465;42.700;23.278;2024-01-27T06:11:08;95409.34;;;4.73;89.56
12803;BME280;6465;42.700;23.278;2024-01-27T06:13:34;95400.75;;;4.71;89.30
12803;BME280;6465;42.700;23.278;2024-01-27T06:16:06;95412.56;;;4.84;88.75
12803;BME280;6465;42.700;23.278;2024-01-27T06:18:34;95407.25;;;4.89;88.40
12803;BME280;6465;42.700;23.278;2024-01-27T06:21:02;95419.31;;;4.91;88.92
12803;BME280;6465;42.700;23.278;2024-01-27T06:23:29;95403.84;;;4.85;89.48
12803;BME280;6465;42.700;23.278;2024-01-27T06:25:57;95414.91;;;4.93;89.62
12803;BME280;6465;42.700;23.278;2024-01-27T06:28:25;95431.25;;;4.98;89.72
12803;BME280;6465;42.700;23.278;2024-01-27T06:30:51;95438.13;;;4.99;89.50
12803;BME280;6465;42.700;23.278;2024-01-27T06:33:18;95446.59;;;5.07;90.06
12803;BME280;6465;42.700;23.278;2024-01-27T06:35:45;95446.59;;;5.07;89.59
12803;BME280;6465;42.700;23.278;2024-01-27T06:38:12;95448.31;;;5.08;89.42
12803;BME280;6465;42.700;23.278;2024-01-27T06:40:39;95464.56;;;5.16;89.54
12803;BME280;6465;42.700;23.278;2024-01-27T06:43:09;95448.81;;;5.24;89.28
12803;BME280;6465;42.700;23.278;2024-01-27T06:45:36;95455.63;;;5.28;89.14
12803;BME280;6465;42.700;23.278;2024-01-27T06:48:03;95463.59;;;5.21;89.73
12803;BME280;6465;42.700;23.278;2024-01-27T06:50:30;95477.41;;;5.23;89.68
12803;BME280;6465;42.700;23.278;2024-01-27T06:52:57;95473.03;;;5.25;88.93
12803;BME280;6465;42.700;23.278;2024-01-27T06:55:24;95464.91;;;5.38;87.96
12803;BME280;6465;42.700;23.278;2024-01-27T06:57:52;95475.47;;;5.31;88.16
12803;BME280;6465;42.700;23.278;2024-01-27T07:00:21;95458.03;;;5.36;86.75
12803;BME280;6465;42.700;23.278;2024-01-27T07:02:48;95463.94;;;5.42;85.79
12803;BME280;6465;42.700;23.278;2024-01-27T07:05:15;95460.38;;;5.46;84.60
12803;BME280;6465;42.700;23.278;2024-01-27T07:07:42;95458.31;;;5.59;83.25
12803;BME280;6465;42.700;23.278;2024-01-27T07:10:09;95458.28;;;5.61;83.33
12803;BME280;6465;42.700;23.278;2024-01-27T07:12:36;95454.72;;;5.65;82.47
12803;BME280;6465;42.700;23.278;2024-01-27T07:15:04;95468.44;;;5.70;81.52
12803;BME280;6465;42.700;23.278;2024-01-27T07:17:32;95464.78;;;5.78;81.33
12803;BME280;6465;42.700;23.278;2024-01-27T07:20:00;95479.53;;;5.76;81.05
12803;BME280;6465;42.700;23.278;2024-01-27T07:22:27;95465.66;;;5.77;80.17
12803;BME280;6465;42.700;23.278;2024-01-27T07:24:54;95475.19;;;5.77;80.11
12803;BME280;6465;42.700;23.278;2024-01-27T07:27:22;95478.00;;;5.69;80.17
12803;BME280;6465;42.700;23.278;2024-01-27T07:29:49;95505.53;;;5.76;79.63
12803;BME280;6465;42.700;23.278;2024-01-27T07:32:16;95498.09;;;5.61;79.37
12803;BME280;6465;42.700;23.278;2024-01-27T07:34:44;95509.22;;;5.66;79.17
12803;BME280;6465;42.700;23.278;2024-01-27T07:37:11;95531.97;;;5.58;79.23
12803;BME280;6465;42.700;23.278;2024-01-27T07:39:38;95549.97;;;5.66;77.99
12803;BME280;6465;42.700;23.278;2024-01-27T07:42:06;95554.38;;;5.62;77.53
12803;BME280;6465;42.700;23.278;2024-01-27T07:44:33;95557.72;;;5.67;76.59
12803;BME280;6465;42.700;23.278;2024-01-27T07:47:00;95575.91;;;5.67;75.80
12803;BME280;6465;42.700;23.278;2024-01-27T07:49:26;95574.19;;;5.66;75.45
12803;BME280;6465;42.700;23.278;2024-01-27T07:51:55;95565.50;;;5.67;74.90
12803;BME280;6465;42.700;23.278;2024-01-27T07:54:22;95558.47;;;5.72;74.59
12803;BME280;6465;42.700;23.278;2024-01-27T07:56:49;95564.75;;;5.62;73.99
12803;BME280;6465;42.700;23.278;2024-01-27T07:59:17;95582.97;;;5.61;74.00
12803;BME280;6465;42.700;23.278;2024-01-27T08:01:44;95588.97;;;5.64;73.72
12803;BME280;6465;42.700;23.278;2024-01-27T08:04:11;95590.94;;;5.53;74.01
12803;BME280;6465;42.700;23.278;2024-01-27T08:06:46;95585.56;;;5.61;74.00
12803;BME280;6465;42.700;23.278;2024-01-27T08:09:15;95587.25;;;5.63;73.70
12803;BME280;6465;42.700;23.278;2024-01-27T08:11:43;95592.38;;;5.66;73.92
12803;BME280;6465;42.700;23.278;2024-01-27T08:14:10;95602.66;;;5.72;73.81
12803;BME280;6465;42.700;23.278;2024-01-27T08:16:37;95592.31;;;5.69;74.53
12803;BME280;6465;42.700;23.278;2024-01-27T08:19:04;95564.56;;;5.71;74.00
12803;BME280;6465;42.700;23.278;2024-01-27T08:21:31;95575.09;;;5.65;73.95
12803;BME280;6465;42.700;23.278;2024-01-27T08:23:58;95593.19;;;5.68;74.46
12803;BME280;6465;42.700;23.278;2024-01-27T08:26:27;95577.47;;;5.74;72.88
12803;BME280;6465;42.700;23.278;2024-01-27T08:28:54;95571.31;;;5.78;73.31
12803;BME280;6465;42.700;23.278;2024-01-27T08:31:21;95574.84;;;5.74;72.32
12803;BME280;6465;42.700;23.278;2024-01-27T08:33:48;95557.28;;;5.85;72.33
12803;BME280;6465;42.700;23.278;2024-01-27T08:36:15;95562.38;;;5.91;71.70
12803;BME280;6465;42.700;23.278;2024-01-27T08:38:42;95608.75;;;6.07;70.80
12803;BME280;6465;42.700;23.278;2024-01-27T08:41:10;95601.78;;;6.09;70.63
12803;BME280;6465;42.700;23.278;2024-01-27T08:43:38;95571.63;;;6.02;70.85
12803;BME280;6465;42.700;23.278;2024-01-27T08:46:06;95574.97;;;6.07;71.15
12803;BME280;6465;42.700;23.278;2024-01-27T08:48:37;95588.66;;;6.13;70.85
12803;BME280;6465;42.700;23.278;2024-01-27T08:51:04;95590.28;;;6.19;70.44
12803;BME280;6465;42.700;23.278;2024-01-27T08:53:31;95587.84;;;6.13;70.50
12803;BME280;6465;42.700;23.278;2024-01-27T08:55:58;95549.09;;;6.02;70.10
12803;BME280;6465;42.700;23.278;2024-01-27T08:58:25;95566.59;;;5.95;70.94
12803;BME280;6465;42.700;23.278;2024-01-27T09:00:53;95587.25;;;6.00;71.13
12803;BME280;6465;42.700;23.278;2024-01-27T09:03:20;95589.13;;;6.29;69.92
12803;BME280;6465;42.700;23.278;2024-01-27T09:05:47;95595.16;;;6.31;69.72
12803;BME280;6465;42.700;23.278;2024-01-27T09:08:14;95592.47;;;6.34;69.36
12803;BME280;6465;42.700;23.278;2024-01-27T09:10:42;95594.09;;;6.38;69.04
12803;BME280;6465;42.700;23.278;2024-01-27T09:13:09;95585.66;;;6.30;69.14
12803;BME280;6465;42.700;23.278;2024-01-27T09:15:36;95586.47;;;6.32;68.82
12803;BME280;6465;42.700;23.278;2024-01-27T09:18:05;95587.84;;;6.13;68.43
12803;BME280;6465;42.700;23.278;2024-01-27T09:20:32;95587.59;;;6.22;68.62
12803;BME280;6465;42.700;23.278;2024-01-27T09:22:59;95567.78;;;6.16;68.89
12803;BME280;6465;42.700;23.278;2024-01-27T09:25:26;95584.47;;;6.08;69.59
12803;BME280;6465;42.700;23.278;2024-01-27T09:27:55;95586.00;;;6.16;69.33
12803;BME280;6465;42.700;23.278;2024-01-27T09:30:22;95560.97;;;6.12;69.15
12803;BME280;6465;42.700;23.278;2024-01-27T09:32:49;95550.16;;;6.27;69.18
12803;BME280;6465;42.700;23.278;2024-01-27T09:35:18;95551.34;;;6.16;69.55
12803;BME280;6465;42.700;23.278;2024-01-27T09:37:45;95566.63;;;6.28;69.19
12803;BME280;6465;42.700;23.278;2024-01-27T09:40:13;95534.69;;;6.23;68.80
12803;BME280;6465;42.700;23.278;2024-01-27T09:42:42;95539.22;;;6.15;69.07
12803;BME280;6465;42.700;23.278;2024-01-27T09:45:12;95570.44;;;6.15;69.28
12803;BME280;6465;42.700;23.278;2024-01-27T09:47:39;95563.41;;;6.18;68.56
12803;BME280;6465;42.700;23.278;2024-01-27T09:50:08;95561.91;;;6.10;68.68
12803;BME280;6465;42.700;23.278;2024-01-27T09:52:39;95537.31;;;5.86;69.06
12803;BME280;6465;42.700;23.278;2024-01-27T09:55:07;95578.31;;;6.12;68.45
12803;BME280;6465;42.700;23.278;2024-01-27T09:57:37;95579.06;;;6.17;68.75
12803;BME280;6465;42.700;23.278;2024-01-27T10:00:10;95581.91;;;6.06;68.70
12803;BME280;6465;42.700;23.278;2024-01-27T10:02:39;95583.59;;;6.09;69.43
12803;BME280;6465;42.700;23.278;2024-01-27T10:05:08;95593.44;;;6.30;68.45
12803;BME280;6465;42.700;23.278;2024-01-27T10:07:35;95596.28;;;6.21;68.72
12803;BME280;6465;42.700;23.278;2024-01-27T10:10:05;95596.53;;;6.12;69.17
12803;BME280;6465;42.700;23.278;2024-01-27T10:12:34;95605.13;;;6.14;68.79
12803;BME280;6465;42.700;23.278;2024-01-27T10:15:05;95598.44;;;6.04;69.13
12803;BME280;6465;42.700;23.278;2024-01-27T10:17:32;95612.38;;;6.01;69.14
12803;BME280;6465;42.700;23.278;2024-01-27T10:20:02;95600.38;;;5.95;69.63
12803;BME280;6465;42.700;23.278;2024-01-27T10:22:37;95602.28;;;5.87;69.74
12803;BME280;6465;42.700;23.278;2024-01-27T10:25:07;95608.31;;;5.89;69.97
12803;BME280;6465;42.700;23.278;2024-01-27T10:27:35;95605.34;;;5.68;70.27
12803;BME280;6465;42.700;23.278;2024-01-27T10:30:02;95623.16;;;5.84;70.35
12803;BME280;6465;42.700;23.278;2024-01-27T10:32:29;95618.69;;;5.91;69.88
12803;BME280;6465;42.700;23.278;2024-01-27T10:35:02;95618.88;;;5.82;70.32
12803;BME280;6465;42.700;23.278;2024-01-27T10:37:30;95621.66;;;5.73;70.81
12803;BME280;6465;42.700;23.278;2024-01-27T10:40:01;95616.34;;;5.79;70.65
12803;BME280;6465;42.700;23.278;2024-01-27T10:42:31;95621.00;;;5.65;70.64
12803;BME280;6465;42.700;23.278;2024-01-27T10:44:58;95615.72;;;5.68;71.11
12803;BME280;6465;42.700;23.278;2024-01-27T10:47:27;95621.72;;;5.71;71.48
12803;BME280;6465;42.700;23.278;2024-01-27T10:49:55;95625.19;;;5.70;71.11
12803;BME280;6465;42.700;23.278;2024-01-27T10:52:23;95626.13;;;5.66;71.39
12803;BME280;6465;42.700;23.278;2024-01-27T10:54:57;95631.41;;;5.65;71.40
12803;BME280;6465;42.700;23.278;2024-01-27T10:57:26;95629.69;;;5.64;71.77
12803;BME280;6465;42.700;23.278;2024-01-27T10:59:55;95621.78;;;5.68;71.72
12803;BME280;6465;42.700;23.278;2024-01-27T11:02:23;95628.75;;;5.66;72.01
12803;BME280;6465;42.700;23.278;2024-01-27T11:04:51;95645.75;;;5.79;72.02
12803;BME280;6465;42.700;23.278;2024-01-27T11:07:19;95621.75;;;5.70;71.84
12803;BME280;6465;42.700;23.278;2024-01-27T11:09:49;95630.31;;;5.73;72.13
12803;BME280;6465;42.700;23.278;2024-01-27T11:12:18;95635.56;;;5.72;72.50
12803;BME280;6465;42.700;23.278;2024-01-27T11:14:46;95629.47;;;5.73;72.75
12803;BME280;6465;42.700;23.278;2024-01-27T11:17:15;95626.78;;;5.77;72.62
12803;BME280;6465;42.700;23.278;2024-01-27T11:19:42;95634.44;;;5.83;72.04
12803;BME280;6465;42.700;23.278;2024-01-27T11:22:24;95629.22;;;5.83;72.21
12803;BME280;6465;42.700;23.278;2024-01-27T11:24:52;95627.06;;;5.65;73.08
12803;BME280;6465;42.700;23.278;2024-01-27T11:27:26;95653.66;;;5.76;72.58
12803;BME280;6465;42.700;23.278;2024-01-27T11:29:54;95634.03;;;5.63;72.75
12803;BME280;6465;42.700;23.278;2024-01-27T11:32:23;95627.78;;;5.72;72.95
12803;BME280;6465;42.700;23.278;2024-01-27T11:34:50;95633.88;;;5.69;73.02
12803;BME280;6465;42.700;23.278;2024-01-27T11:37:17;95646.00;;;5.70;72.67
12803;BME280;6465;42.700;23.278;2024-01-27T11:39:49;95640.84;;;5.67;72.59
12803;BME280;6465;42.700;23.278;2024-01-27T11:42:16;95636.63;;;5.63;72.29
12803;BME280;6465;42.700;23.278;2024-01-27T11:44:43;95642.91;;;5.53;72.67
12803;BME280;6465;42.700;23.278;2024-01-27T11:47:15;95643.59;;;5.61;72.30
12803;BME280;6465;42.700;23.278;2024-01-27T11:49:50;95640.84;;;5.67;71.74
12803;BME280;6465;42.700;23.278;2024-01-27T11:52:18;95682.41;;;5.67;71.26
12803;BME280;6465;42.700;23.278;2024-01-27T11:54:46;95666.91;;;5.64;71.20
12803;BME280;6465;42.700;23.278;2024-01-27T11:57:13;95660.13;;;5.57;71.71
12803;BME280;6465;42.700;23.278;2024-01-27T11:59:40;95691.22;;;5.60;70.16
12803;BME280;6465;42.700;23.278;2024-01-27T12:02:07;95674.75;;;5.61;69.88
12803;BME280;6465;42.700;23.278;2024-01-27T12:04:34;95678.94;;;5.68;69.69
12803;BME280;6465;42.700;23.278;2024-01-27T12:07:03;95677.22;;;5.67;69.27
12803;BME280;6465;42.700;23.278;2024-01-27T12:09:30;95682.50;;;5.64;69.69
12803;BME280;6465;42.700;23.278;2024-01-27T12:11:57;95691.94;;;5.68;69.34
12803;BME280;6465;42.700;23.278;2024-01-27T12:14:24;95679.63;;;5.76;69.21
12803;BME280;6465;42.700;23.278;2024-01-27T12:16:51;95688.97;;;5.85;68.59
12803;BME280;6465;42.700;23.278;2024-01-27T12:19:19;95693.19;;;5.92;68.13
12803;BME280;6465;42.700;23.278;2024-01-27T12:21:49;95693.75;;;6.05;67.97
12803;BME280;6465;42.700;23.278;2024-01-27T12:24:18;95710.06;;;6.11;67.10
12803;BME280;6465;42.700;23.278;2024-01-27T12:26:45;95689.88;;;6.21;66.97
12803;BME280;6465;42.700;23.278;2024-01-27T12:29:12;95690.38;;;6.36;66.58
12803;BME280;6465;42.700;23.278;2024-01-27T12:31:39;95697.31;;;6.36;66.07
12803;BME280;6465;42.700;23.278;2024-01-27T12:34:07;95699.63;;;6.48;65.81
12803;BME280;6465;42.700;23.278;2024-01-27T12:36:34;95693.69;;;6.43;66.80
12803;BME280;6465;42.700;23.278;2024-01-27T12:39:02;95697.00;;;6.50;66.08
12803;BME280;6465;42.700;23.278;2024-01-27T12:41:31;95698.34;;;6.66;65.33
12803;BME280;6465;42.700;23.278;2024-01-27T12:43:59;95682.88;;;6.60;65.42
12803;BME280;6465;42.700;23.278;2024-01-27T12:46:26;95695.06;;;6.58;65.42
12803;BME280;6465;42.700;23.278;2024-01-27T12:48:53;95696.22;;;6.46;65.45
12803;BME280;6465;42.700;23.278;2024-01-27T12:51:20;95703.97;;;6.48;65.19
12803;BME280;6465;42.700;23.278;2024-01-27T12:53:47;95708.56;;;6.38;65.86
12803;BME280;6465;42.700;23.278;2024-01-27T12:56:16;95701.78;;;6.31;66.02
12803;BME280;6465;42.700;23.278;2024-01-27T12:58:44;95704.03;;;6.46;64.97
12803;BME280;6465;42.700;23.278;2024-01-27T13:01:12;95701.50;;;6.43;64.41
12803;BME280;6465;42.700;23.278;2024-01-27T13:03:39;95698.06;;;6.41;63.31
12803;BME280;6465;42.700;23.278;2024-01-27T13:06:06;95688.00;;;6.27;63.59
12803;BME280;6465;42.700;23.278;2024-01-27T13:08:33;95719.34;;;6.21;63.28
12803;BME280;6465;42.700;23.278;2024-01-27T13:11:00;95684.78;;;6.18;63.17